createdAt,value
2018-02-16T00:03:22.240Z,98.00
2018-02-16T00:08:06.131Z,98.10
2018-02-16T00:13:07.464Z,98.00
2018-02-16T00:17:53.546Z,98.00
2018-02-16T00:36:11.388Z,97.80
2018-02-16T00:40:54.937Z,98.00
2018-02-16T00:45:38.332Z,98.10
2018-02-16T00:50:21.727Z,98.20
2018-02-16T00:55:05.912Z,98.20
2018-02-16T00:59:49.373Z,98.50
2018-02-16T01:04:32.762Z,98.20
2018-02-16T01:09:17.164Z,98.30
2018-02-16T01:14:00.547Z,98.20
2018-02-16T01:18:44.005Z,97.90
2018-02-16T01:23:27.535Z,98.10
2018-02-16T01:28:10.996Z,98.20
2018-02-16T01:32:54.367Z,98.30
2018-02-16T01:37:37.780Z,98.40
2018-02-16T01:42:21.368Z,98.40
2018-02-16T01:47:04.736Z,98.50
2018-02-16T01:51:48.147Z,98.60
2018-02-16T01:56:31.526Z,98.50
2018-02-16T02:01:14.892Z,98.50
2018-02-16T02:05:59.112Z,98.50
2018-02-16T02:10:43.376Z,98.40
2018-02-16T02:15:27.537Z,98.60
2018-02-16T02:20:10.893Z,98.60
2018-02-16T02:24:54.191Z,98.50
2018-02-16T02:29:37.598Z,98.50
2018-02-16T02:34:20.999Z,98.60
2018-02-16T02:39:04.322Z,98.70
2018-02-16T02:43:47.936Z,98.60
2018-02-16T02:48:32.014Z,98.90
2018-02-16T02:53:15.379Z,98.90
2018-02-16T02:57:58.780Z,99.00
2018-02-16T03:02:42.911Z,99.90
2018-02-16T03:07:26.287Z,99.80
2018-02-16T03:12:09.721Z,99.90
2018-02-16T03:16:53.925Z,99.90
2018-02-16T03:21:37.603Z,99.90
2018-02-16T03:26:20.899Z,99.90
2018-02-16T03:31:04.233Z,99.90
2018-02-16T03:35:47.680Z,99.90
2018-02-16T03:40:31.078Z,99.90
2018-02-16T03:45:15.450Z,99.90
2018-02-16T03:49:58.786Z,99.90
2018-02-16T03:54:42.909Z,99.90
2018-02-16T03:59:26.252Z,99.90
2018-02-16T04:04:09.624Z,99.90
2018-02-16T04:08:53.876Z,99.90
2018-02-16T04:13:37.269Z,99.90
2018-02-16T04:18:20.688Z,99.90
2018-02-16T04:23:04.326Z,99.90
2018-02-16T04:27:48.447Z,99.90
2018-02-16T04:32:31.855Z,99.90
2018-02-16T04:37:15.210Z,99.90
2018-02-16T04:41:58.573Z,99.90
2018-02-16T04:46:41.927Z,99.90
2018-02-16T04:51:25.620Z,99.90
2018-02-16T04:56:08.992Z,99.90
2018-02-16T05:00:52.353Z,99.90
2018-02-16T05:05:35.770Z,99.90
2018-02-16T05:10:19.137Z,99.90
2018-02-16T05:15:02.521Z,99.90
2018-02-16T05:19:46.123Z,99.90
2018-02-16T05:24:29.424Z,99.90
2018-02-16T05:29:12.831Z,99.90
2018-02-16T05:33:56.207Z,99.90
2018-02-16T05:38:39.578Z,99.90
2018-02-16T05:43:22.945Z,99.90
2018-02-16T05:48:07.094Z,99.90
2018-02-16T05:52:50.498Z,99.90
2018-02-16T05:57:34.067Z,99.90
2018-02-16T06:02:17.451Z,99.90
2018-02-16T06:07:01.610Z,99.90
2018-02-16T06:11:46.020Z,99.90
2018-02-16T06:16:29.395Z,99.90
2018-02-16T06:21:12.762Z,99.90
2018-02-16T06:25:56.927Z,99.90
2018-02-16T06:30:40.389Z,99.90
2018-02-16T06:35:23.785Z,99.90
2018-02-16T06:40:07.181Z,99.90
2018-02-16T06:44:50.607Z,99.90
2018-02-16T06:49:34.270Z,99.90
2018-02-16T06:54:17.828Z,99.90
2018-02-16T06:59:01.218Z,99.90
2018-02-16T07:03:44.624Z,99.90
2018-02-16T07:08:28.116Z,99.90
2018-02-16T07:13:12.387Z,99.90
2018-02-16T07:17:55.860Z,99.90
2018-02-16T07:22:39.560Z,99.90
2018-02-16T07:27:23.035Z,99.90
2018-02-16T07:32:08.171Z,99.90
2018-02-16T07:36:51.727Z,99.90
2018-02-16T07:41:35.814Z,99.90
2018-02-16T07:46:19.206Z,99.90
2018-02-16T07:51:03.691Z,99.90
2018-02-16T07:55:47.895Z,99.90
2018-02-16T08:00:31.257Z,99.90
2018-02-16T08:05:14.667Z,99.90
2018-02-16T08:09:58.042Z,99.90
2018-02-16T08:14:41.487Z,99.90
2018-02-16T08:19:24.842Z,99.90
2018-02-16T08:24:08.164Z,99.90
2018-02-16T08:28:51.559Z,99.60
2018-02-16T08:33:35.098Z,99.40
2018-02-16T08:38:18.556Z,98.60
2018-02-16T08:43:01.931Z,98.20
2018-02-16T08:47:45.427Z,97.50
2018-02-16T08:52:28.828Z,97.00
2018-02-16T08:57:12.190Z,96.90
2018-02-16T09:01:56.505Z,96.10
2018-02-16T09:06:40.496Z,96.10
2018-02-16T09:11:24.115Z,95.20
2018-02-16T09:16:07.445Z,94.30
2018-02-16T09:20:50.809Z,93.80
2018-02-16T09:25:34.175Z,93.10
2018-02-16T09:30:18.278Z,92.40
2018-02-16T09:35:01.693Z,92.30
2018-02-16T09:39:45.652Z,91.90
2018-02-16T09:44:29.262Z,92.10
2018-02-16T09:49:12.660Z,91.40
2018-02-16T09:53:56.154Z,90.70
2018-02-16T09:58:40.332Z,88.00
2018-02-16T10:03:24.554Z,86.90
2018-02-16T10:08:07.974Z,86.90
2018-02-16T10:12:51.601Z,86.80
2018-02-16T10:17:36.071Z,86.40
2018-02-16T10:22:20.357Z,81.50
2018-02-16T10:27:03.714Z,81.40
2018-02-16T10:31:47.082Z,80.90
2018-02-16T10:36:30.605Z,80.20
2018-02-16T10:41:13.921Z,81.90
2018-02-16T10:45:57.268Z,78.00
2018-02-16T10:50:40.604Z,78.40
2018-02-16T10:55:23.958Z,78.90
2018-02-16T11:00:07.330Z,75.70
2018-02-16T11:04:56.287Z,71.20
2018-02-16T11:09:39.637Z,71.50
2018-02-16T11:14:23.066Z,74.90
2018-02-16T11:19:06.643Z,71.50
2018-02-16T11:23:50.755Z,70.90
2018-02-16T11:28:34.208Z,70.90
2018-02-16T11:33:17.556Z,69.30
2018-02-16T11:38:01.691Z,68.50
2018-02-16T11:42:45.036Z,68.30
2018-02-16T11:47:28.410Z,71.50
2018-02-16T11:52:12.793Z,67.70
2018-02-16T11:56:56.835Z,69.40
2018-02-16T12:01:40.980Z,70.10
2018-02-16T12:06:24.343Z,70.00
2018-02-16T12:11:08.439Z,70.60
2018-02-16T12:15:51.769Z,70.60
2018-02-16T12:20:35.135Z,71.10
2018-02-16T12:25:18.468Z,69.80
2018-02-16T12:30:02.072Z,71.20
2018-02-16T12:34:46.150Z,68.20
2018-02-16T12:39:30.379Z,68.80
2018-02-16T12:44:14.495Z,68.90
2018-02-16T12:48:57.884Z,68.90
2018-02-16T12:53:42.103Z,67.00
2018-02-16T12:58:25.458Z,67.00
2018-02-16T13:03:09.166Z,65.30
2018-02-16T13:07:52.510Z,64.80
2018-02-16T13:12:35.842Z,65.80
2018-02-16T13:17:19.211Z,61.10
2018-02-16T13:22:02.550Z,62.40
2018-02-16T13:26:45.998Z,63.00
2018-02-16T13:31:30.186Z,61.20
2018-02-16T13:36:14.605Z,64.60
2018-02-16T13:40:57.942Z,64.40
2018-02-16T13:45:41.251Z,68.10
2018-02-16T13:50:24.642Z,69.90
2018-02-16T13:55:08.049Z,70.10
2018-02-16T13:59:51.486Z,70.30
2018-02-16T14:04:35.900Z,73.20
2018-02-16T14:09:19.195Z,73.10
2018-02-16T14:14:02.575Z,75.60
2018-02-16T14:18:45.978Z,76.50
2018-02-16T14:23:29.464Z,77.30
2018-02-16T14:28:12.851Z,76.00
2018-02-16T14:32:57.088Z,76.00
2018-02-16T14:37:41.526Z,76.00
2018-02-16T14:42:25.722Z,75.80
2018-02-16T14:47:09.240Z,75.70
2018-02-16T14:51:53.432Z,78.80
2018-02-16T14:56:37.687Z,80.00
2018-02-16T15:01:21.882Z,82.70
2018-02-16T15:06:05.522Z,82.10
2018-02-16T15:10:48.856Z,82.70
2018-02-16T15:15:32.216Z,84.60
2018-02-16T15:20:15.601Z,85.40
2018-02-16T15:24:59.035Z,86.30
2018-02-16T15:29:43.173Z,87.80
2018-02-16T15:34:26.510Z,87.70
2018-02-16T15:39:09.902Z,89.20
2018-02-16T15:43:54.053Z,90.50
2018-02-16T15:48:38.214Z,90.90
2018-02-16T15:53:22.350Z,91.30
2018-02-16T15:58:05.711Z,91.30
2018-02-16T16:02:50.785Z,91.60
2018-02-16T16:07:34.131Z,91.60
2018-02-16T16:12:18.576Z,92.40
2018-02-16T16:17:01.908Z,92.40
2018-02-16T16:21:45.233Z,92.80
2018-02-16T16:26:28.567Z,93.30
2018-02-16T16:31:11.903Z,93.50
2018-02-16T16:35:56.047Z,94.10
2018-02-16T16:40:39.403Z,94.10
2018-02-16T16:45:22.808Z,94.50
2018-02-16T16:50:06.416Z,94.60
2018-02-16T16:54:49.880Z,95.30
2018-02-16T16:59:34.051Z,95.80
2018-02-16T17:04:17.372Z,95.80
2018-02-16T17:09:00.731Z,96.00
2018-02-16T17:13:44.136Z,96.60
2018-02-16T17:18:27.474Z,97.00
2018-02-16T17:23:10.810Z,97.20
2018-02-16T17:27:54.135Z,97.70
2018-02-16T17:32:37.479Z,98.00
2018-02-16T17:37:20.792Z,98.30
2018-02-16T17:42:05.435Z,98.20
2018-02-16T17:46:49.574Z,98.60
2018-02-16T17:51:32.894Z,98.60
2018-02-16T17:56:16.532Z,98.80
2018-02-16T18:00:59.860Z,99.20
2018-02-16T18:05:43.209Z,99.20
2018-02-16T18:10:26.573Z,99.10
2018-02-16T18:15:09.971Z,98.90
2018-02-16T18:19:54.083Z,98.70
2018-02-16T18:24:37.397Z,98.70
2018-02-16T18:29:20.760Z,98.40
2018-02-16T18:34:04.396Z,98.20
2018-02-16T18:38:47.705Z,98.30
2018-02-16T18:43:31.148Z,98.50
2018-02-16T18:48:15.262Z,98.40
2018-02-16T18:52:58.664Z,98.40
2018-02-16T18:57:42.020Z,98.60
2018-02-16T19:02:25.687Z,98.60
2018-02-16T19:07:09.007Z,98.70
2018-02-16T19:11:52.357Z,98.50
2018-02-16T19:16:35.678Z,98.60
2018-02-16T19:21:19.070Z,98.80
2018-02-16T19:26:02.409Z,99.00
2018-02-16T19:30:46.821Z,99.00
2018-02-16T19:35:30.153Z,99.00
2018-02-16T19:40:14.320Z,98.80
2018-02-16T19:44:57.706Z,98.70
2018-02-16T19:49:41.060Z,98.80
2018-02-16T19:54:25.211Z,98.80
2018-02-16T19:59:08.871Z,98.70
2018-02-16T20:03:52.155Z,98.80
2018-02-16T20:08:35.624Z,99.10
2018-02-16T20:13:19.896Z,99.00
2018-02-16T20:18:03.255Z,98.60
2018-02-16T20:22:46.726Z,98.70
2018-02-16T20:27:30.155Z,98.30
2018-02-16T20:32:14.540Z,97.60
2018-02-16T20:36:57.906Z,97.60
2018-02-16T20:41:41.250Z,97.40
2018-02-16T20:46:24.614Z,97.20
2018-02-16T20:51:08.764Z,97.10
2018-02-16T20:55:52.352Z,96.90
2018-02-16T21:00:35.807Z,96.70
2018-02-16T21:05:19.169Z,96.40
2018-02-16T21:10:02.520Z,96.20
2018-02-16T21:14:45.970Z,95.80
2018-02-16T21:19:29.318Z,95.70
2018-02-16T21:24:13.213Z,95.30
2018-02-16T21:28:57.253Z,95.20
2018-02-16T21:33:40.864Z,95.20
2018-02-16T21:38:24.506Z,95.20
2018-02-16T21:43:13.932Z,95.20
2018-02-16T21:47:59.460Z,95.20
2018-02-16T21:52:46.620Z,95.40
2018-02-16T21:57:31.191Z,95.50
2018-02-16T22:02:15.258Z,95.80
2018-02-16T22:06:58.628Z,96.20
2018-02-16T22:11:42.237Z,96.60
2018-02-16T22:16:25.835Z,97.10
2018-02-16T22:21:09.340Z,97.30
2018-02-16T22:25:52.839Z,97.50
2018-02-16T22:30:36.467Z,97.80
2018-02-16T22:35:20.172Z,97.70
2018-02-16T22:40:03.584Z,97.70
2018-02-16T22:44:47.078Z,97.60
2018-02-16T22:49:30.552Z,97.40
2018-02-16T22:54:13.936Z,97.40
2018-02-16T22:58:58.347Z,97.10
2018-02-16T23:03:42.319Z,97.10
2018-02-16T23:08:26.134Z,97.00
2018-02-16T23:13:09.624Z,96.80
2018-02-16T23:17:52.992Z,97.00
2018-02-16T23:22:36.396Z,96.40
2018-02-16T23:27:19.873Z,96.20
2018-02-16T23:32:03.314Z,96.00
2018-02-16T23:36:46.711Z,96.00
2018-02-16T23:41:30.134Z,95.80
2018-02-16T23:46:14.231Z,96.10
2018-02-16T23:50:58.321Z,96.00
2018-02-16T23:55:41.788Z,96.10
